Time;durP1;ratioP1;P1;durP2;ratioP2;P2;SDS_P1;SDS_P2;PMS_P1;PMS_P2;Temp;Humidity;BMP_temperature;BMP_pressure;BME280_temperature;BME280_humidity;BME280_pressure;Samples;Min_cycle;Max_cycle;Signal;HPM_P1;HPM_P2
2022/12/06 00:00:43;;;;;;;;;;;4.00;99.90;;;;;;5041463;28;20559;-64
2022/12/06 00:03:08;;;;;;;;;;;4.00;99.90;;;;;;5039674;28;19940;-63
2022/12/06 00:05:34;;;;;;;;;;;4.10;99.90;;;;;;5040924;28;20284;-63
2022/12/06 00:07:59;;;;;;;;;;;4.00;99.90;;;;;;5039832;28;19927;-63
2022/12/06 00:10:25;;;;;;;;;;;4.00;99.90;;;;;;5035552;28;19949;-63
2022/12/06 00:12:51;;;;;;;;;;;4.10;99.90;;;;;;5042836;28;19948;-63
2022/12/06 00:15:16;;;;;;;;;;;4.00;99.90;;;;;;5040647;28;19913;-63
2022/12/06 00:17:42;;;;;;;;;;;4.10;99.90;;;;;;5040577;28;20362;-63
2022/12/06 00:20:07;;;;;;;;;;;4.10;99.90;;;;;;5036234;28;20287;-63
2022/12/06 00:22:33;;;;;;;;;;;4.20;99.90;;;;;;5042833;28;19925;-62
2022/12/06 00:24:58;;;;;;;;;;;4.10;99.90;;;;;;5039067;28;19921;-63
2022/12/06 00:27:24;;;;;;;;;;;4.10;99.90;;;;;;5034991;28;20015;-62
2022/12/06 00:29:49;;;;;;;;;;;4.10;99.90;;;;;;5039509;28;19967;-62
2022/12/06 00:32:15;;;;;;;;;;;4.10;99.90;;;;;;5039268;28;20380;-62
2022/12/06 00:34:40;;;;;;;;;;;4.00;99.90;;;;;;5042992;28;20272;-61
2022/12/06 00:37:06;;;;;;;;;;;4.10;99.90;;;;;;5039578;28;20615;-62
2022/12/06 00:39:31;;;;;;;;;;;4.00;99.90;;;;;;5041759;28;19921;-61
2022/12/06 00:41:57;;;;;;;;;;;4.00;99.90;;;;;;5040293;28;19920;-62
2022/12/06 00:44:23;;;;;;;;;;;4.00;99.90;;;;;;5040165;28;20156;-61
2022/12/06 00:46:48;;;;;;;;;;;4.10;99.90;;;;;;5041455;28;19924;-60
2022/12/06 00:49:14;;;;;;;;;;;4.10;99.90;;;;;;5040929;28;20232;-61
2022/12/06 00:51:39;;;;;;;;;;;4.20;99.90;;;;;;5038433;28;20430;-61
2022/12/06 00:54:05;;;;;;;;;;;4.10;99.90;;;;;;5041845;28;19939;-61
2022/12/06 00:56:31;;;;;;;;;;;4.20;99.90;;;;;;5045474;28;20352;-61
2022/12/06 00:58:57;;;;;;;;;;;4.00;99.90;;;;;;5043172;28;20260;-61
2022/12/06 01:01:26;;;;;;;;;;;4.10;99.90;;;;;;5040180;28;19921;-60
2022/12/06 01:03:53;;;;;;;;;;;4.10;99.90;;;;;;5036107;28;19916;-61
2022/12/06 01:06:21;;;;;;;;;;;4.10;99.90;;;;;;5040175;28;20395;-61
2022/12/06 01:08:47;;;;;;;;;;;4.00;99.90;;;;;;5040564;28;20407;-61
2022/12/06 01:11:13;;;;;;;;;;;3.90;99.90;;;;;;5039612;28;19959;-62
2022/12/06 01:13:39;;;;;;;;;;;4.10;99.90;;;;;;5039719;28;20380;-61
2022/12/06 01:16:08;;;;;;;;;;;4.20;99.90;;;;;;5042586;28;19913;-61
2022/12/06 01:18:34;;;;;;;;;;;4.10;99.90;;;;;;5039102;28;19920;-62
2022/12/06 01:21:04;;;;;;;;;;;4.20;99.90;;;;;;5040083;28;19943;-62
2022/12/06 01:23:29;;;;;;;;;;;4.10;99.90;;;;;;5035980;28;20011;-62
2022/12/06 01:25:55;;;;;;;;;;;4.20;99.90;;;;;;5031504;28;20028;-61
2022/12/06 01:28:20;;;;;;;;;;;4.20;99.90;;;;;;5038589;28;19931;-61
2022/12/06 01:30:46;;;;;;;;;;;4.20;99.90;;;;;;5040713;28;20742;-63
2022/12/06 01:33:11;;;;;;;;;;;4.20;99.90;;;;;;5035620;28;19913;-62
2022/12/06 01:35:40;;;;;;;;;;;4.10;99.90;;;;;;5038608;28;20582;-61
2022/12/06 01:38:06;;;;;;;;;;;4.20;99.90;;;;;;5044058;28;19991;-60
2022/12/06 01:40:35;;;;;;;;;;;4.10;99.90;;;;;;5045151;28;19917;-61
2022/12/06 01:43:01;;;;;;;;;;;4.10;99.90;;;;;;5038594;28;19927;-61
2022/12/06 01:45:27;;;;;;;;;;;4.20;99.90;;;;;;5041469;28;19917;-61
2022/12/06 01:47:52;;;;;;;;;;;4.30;99.90;;;;;;5041631;28;19913;-61
2022/12/06 01:50:21;;;;;;;;;;;4.40;99.90;;;;;;5041700;28;19923;-62
2022/12/06 01:52:49;;;;;;;;;;;4.40;99.90;;;;;;5042046;28;20364;-61
2022/12/06 01:55:15;;;;;;;;;;;4.30;99.90;;;;;;5037386;28;19927;-61
2022/12/06 01:57:41;;;;;;;;;;;4.40;99.90;;;;;;5052301;28;20379;-61
2022/12/06 02:00:07;;;;;;;;;;;4.30;99.90;;;;;;5045401;28;19921;-60
2022/12/06 02:02:32;;;;;;;;;;;4.30;99.90;;;;;;5041467;28;19924;-61
2022/12/06 02:04:58;;;;;;;;;;;4.40;99.90;;;;;;5041358;28;20035;-61
2022/12/06 02:07:26;;;;;;;;;;;4.50;99.90;;;;;;5036349;28;19925;-61
2022/12/06 02:09:51;;;;;;;;;;;4.70;99.90;;;;;;5041876;28;19963;-61
2022/12/06 02:12:17;;;;;;;;;;;4.60;99.90;;;;;;5043667;28;19956;-61
2022/12/06 02:14:45;;;;;;;;;;;4.50;99.90;;;;;;5042901;28;19964;-62
2022/12/06 02:17:29;;;;;;;;;;;4.60;99.90;;;;;;5040575;28;19923;-61
2022/12/06 02:20:07;;;;;;;;;;;4.60;99.90;;;;;;5040499;28;19947;-62
2022/12/06 02:22:46;;;;;;;;;;;4.50;99.90;;;;;;5040681;28;19931;-62
2022/12/06 02:25:30;;;;;;;;;;;4.50;99.90;;;;;;5044537;28;20008;-62
2022/12/06 02:28:03;;;;;;;;;;;4.60;99.90;;;;;;5045433;28;20296;-62
2022/12/06 02:30:42;;;;;;;;;;;4.60;99.90;;;;;;5038539;28;20538;-62
2022/12/06 02:33:17;;;;;;;;;;;4.60;99.90;;;;;;5042459;28;19920;-61
2022/12/06 02:35:47;;;;;;;;;;;4.70;99.90;;;;;;5041636;28;20343;-62
2022/12/06 02:38:14;;;;;;;;;;;4.70;99.90;;;;;;5043496;28;20622;-62
2022/12/06 02:40:52;;;;;;;;;;;4.60;99.90;;;;;;5037297;28;19925;-62
2022/12/06 02:43:20;;;;;;;;;;;4.70;99.90;;;;;;5041707;28;19922;-62
2022/12/06 02:45:48;;;;;;;;;;;4.80;99.90;;;;;;5045118;28;19971;-62
2022/12/06 02:48:14;;;;;;;;;;;4.70;99.90;;;;;;5043285;28;19924;-61
2022/12/06 02:50:42;;;;;;;;;;;4.80;99.90;;;;;;5039047;28;19963;-62
2022/12/06 02:53:10;;;;;;;;;;;4.80;99.90;;;;;;5043022;28;19932;-62
2022/12/06 02:55:35;;;;;;;;;;;4.80;99.90;;;;;;5045137;28;20012;-62
2022/12/06 02:58:01;;;;;;;;;;;4.80;99.90;;;;;;5044873;28;20039;-61
2022/12/06 03:00:27;;;;;;;;;;;4.80;99.90;;;;;;5042900;28;19917;-62
2022/12/06 03:02:56;;;;;;;;;;;4.70;99.90;;;;;;5037989;28;19924;-62
2022/12/06 03:05:28;;;;;;;;;;;4.90;99.90;;;;;;5043563;28;20544;-62
2022/12/06 03:07:54;;;;;;;;;;;4.80;99.90;;;;;;5042815;28;20444;-62
2022/12/06 03:10:37;;;;;;;;;;;4.90;99.90;;;;;;5041413;28;20457;-62
2022/12/06 03:13:07;;;;;;;;;;;4.80;99.90;;;;;;5036867;28;19970;-62
2022/12/06 03:15:55;;;;;;;;;;;4.80;99.90;;;;;;5041630;28;19913;-62
2022/12/06 03:18:30;;;;;;;;;;;4.80;99.90;;;;;;5042471;28;22097;-62
2022/12/06 03:21:07;;;;;;;;;;;4.90;99.90;;;;;;5040309;28;20295;-61
2022/12/06 03:23:36;;;;;;;;;;;4.90;99.90;;;;;;5035583;28;20055;-62
2022/12/06 03:26:04;;;;;;;;;;;4.90;99.90;;;;;;5038396;28;19917;-61
2022/12/06 03:28:29;;;;;;;;;;;5.00;99.90;;;;;;5045221;28;20273;-62
2022/12/06 03:30:58;;;;;;;;;;;4.80;99.90;;;;;;5041211;28;20113;-62
2022/12/06 03:33:26;;;;;;;;;;;4.90;99.90;;;;;;5038305;28;19928;-62
2022/12/06 03:35:52;;;;;;;;;;;4.80;99.90;;;;;;5041157;28;19940;-62
2022/12/06 03:38:21;;;;;;;;;;;4.80;99.90;;;;;;5042768;28;19957;-62
2022/12/06 03:40:48;;;;;;;;;;;4.90;99.90;;;;;;5042574;28;20000;-61
2022/12/06 03:43:14;;;;;;;;;;;4.80;99.90;;;;;;5041588;28;19926;-62
2022/12/06 03:45:49;;;;;;;;;;;4.80;99.90;;;;;;5038468;28;19917;-62
2022/12/06 03:48:19;;;;;;;;;;;5.00;99.90;;;;;;5044000;28;20508;-63
2022/12/06 03:50:49;;;;;;;;;;;4.80;99.90;;;;;;5044052;28;20384;-62
2022/12/06 03:53:17;;;;;;;;;;;5.00;99.90;;;;;;5040406;28;20563;-61
2022/12/06 03:55:44;;;;;;;;;;;5.00;99.90;;;;;;5037098;28;19921;-61
2022/12/06 03:58:10;;;;;;;;;;;5.00;99.90;;;;;;5042194;28;19935;-61
2022/12/06 04:00:36;;;;;;;;;;;5.00;99.90;;;;;;5039142;28;19917;-61
2022/12/06 04:03:01;;;;;;;;;;;5.00;99.90;;;;;;5038191;28;20015;-61
2022/12/06 04:05:27;;;;;;;;;;;5.10;99.90;;;;;;5041254;28;19917;-62
2022/12/06 04:07:52;;;;;;;;;;;5.10;99.90;;;;;;5041505;28;19917;-62
2022/12/06 04:10:18;;;;;;;;;;;5.10;99.90;;;;;;5044731;28;19913;-62
2022/12/06 04:13:01;;;;;;;;;;;5.10;99.90;;;;;;5039985;28;20000;-62
2022/12/06 04:15:37;;;;;;;;;;;5.10;99.90;;;;;;5060698;28;20407;-62
2022/12/06 04:18:15;;;;;;;;;;;5.00;99.90;;;;;;5059405;28;20295;-61
2022/12/06 04:23:33;;;;;;;;;;;5.20;99.90;;;;;;5064167;28;19978;-61
2022/12/06 04:25:59;;;;;;;;;;;5.20;99.90;;;;;;5066199;28;19920;-63
2022/12/06 04:39:22;;;;;;;;;;;5.00;99.90;;;;;;5061928;28;19935;-63
2022/12/06 04:44:32;;;;;;;;;;;5.10;99.90;;;;;;5059924;28;20426;-62
2022/12/06 04:46:58;;;;;;;;;;;5.10;99.90;;;;;;5061038;28;19956;-62
2022/12/06 04:49:25;;;;;;;;;;;4.90;99.90;;;;;;5051654;28;19916;-62
2022/12/06 04:51:51;;;;;;;;;;;4.90;99.90;;;;;;5062137;28;19924;-62
2022/12/06 04:54:16;;;;;;;;;;;5.00;99.90;;;;;;5061515;28;19924;-62
2022/12/06 04:56:42;;;;;;;;;;;4.90;99.90;;;;;;5061374;28;20313;-62
2022/12/06 04:59:07;;;;;;;;;;;4.80;99.90;;;;;;5063110;28;19912;-62
2022/12/06 05:01:33;;;;;;;;;;;4.90;99.90;;;;;;5051606;28;19939;-62
2022/12/06 05:03:58;;;;;;;;;;;4.90;99.90;;;;;;5066125;28;19920;-63
2022/12/06 05:06:24;;;;;;;;;;;5.00;99.90;;;;;;5065237;28;19912;-63
2022/12/06 05:08:49;;;;;;;;;;;4.90;99.90;;;;;;5062179;28;20185;-62
2022/12/06 05:11:15;;;;;;;;;;;5.00;99.90;;;;;;5063609;28;20427;-62
2022/12/06 05:13:40;;;;;;;;;;;5.00;99.90;;;;;;5054824;28;19920;-62
2022/12/06 05:16:06;;;;;;;;;;;4.90;99.90;;;;;;5057555;28;19958;-62
2022/12/06 05:18:32;;;;;;;;;;;5.00;99.90;;;;;;5061143;28;20295;-62
2022/12/06 05:21:05;;;;;;;;;;;5.00;99.90;;;;;;5067888;28;19931;-62
2022/12/06 05:23:33;;;;;;;;;;;5.00;99.90;;;;;;5059741;28;25869;-62
2022/12/06 05:25:59;;;;;;;;;;;5.00;99.90;;;;;;5063210;28;19913;-62
2022/12/06 05:28:25;;;;;;;;;;;5.00;99.90;;;;;;5062712;28;19962;-62
2022/12/06 05:30:50;;;;;;;;;;;4.90;99.90;;;;;;5065335;28;20078;-62
2022/12/06 05:33:16;;;;;;;;;;;5.00;99.90;;;;;;5061822;28;20066;-62
2022/12/06 05:35:41;;;;;;;;;;;5.00;99.90;;;;;;5064921;28;20122;-62
2022/12/06 05:38:07;;;;;;;;;;;5.00;99.90;;;;;;5054594;28;20576;-63
2022/12/06 05:40:32;;;;;;;;;;;5.00;99.90;;;;;;5063023;28;19920;-63
2022/12/06 05:42:57;;;;;;;;;;;5.00;99.90;;;;;;5056380;28;19916;-63
2022/12/06 05:45:23;;;;;;;;;;;4.90;99.90;;;;;;5057991;28;19928;-62
2022/12/06 05:47:48;;;;;;;;;;;4.90;99.90;;;;;;5061558;28;20107;-63
2022/12/06 05:50:14;;;;;;;;;;;4.90;99.90;;;;;;5049569;28;19952;-63
2022/12/06 05:52:40;;;;;;;;;;;4.90;99.90;;;;;;5061467;28;20026;-63
2022/12/06 05:55:06;;;;;;;;;;;5.00;99.90;;;;;;5060071;28;19919;-63
2022/12/06 05:57:31;;;;;;;;;;;5.00;99.90;;;;;;5059498;28;19916;-62
2022/12/06 05:59:57;;;;;;;;;;;5.00;99.90;;;;;;5055428;28;20494;-62
2022/12/06 06:02:22;;;;;;;;;;;5.10;99.90;;;;;;5056231;28;20022;-63
2022/12/06 06:04:48;;;;;;;;;;;5.10;99.90;;;;;;5058992;28;19974;-63
2022/12/06 06:07:13;;;;;;;;;;;5.10;99.90;;;;;;5057162;28;19913;-62
2022/12/06 06:09:38;;;;;;;;;;;5.20;99.90;;;;;;5058041;28;20352;-62
2022/12/06 06:12:04;;;;;;;;;;;5.20;99.90;;;;;;5053487;28;21160;-62
2022/12/06 06:14:30;;;;;;;;;;;5.20;99.90;;;;;;5059747;28;19928;-63
2022/12/06 06:16:55;;;;;;;;;;;5.10;99.90;;;;;;5059231;28;20449;-62
2022/12/06 06:19:23;;;;;;;;;;;5.20;99.90;;;;;;5057019;28;19920;-62
2022/12/06 06:21:48;;;;;;;;;;;5.20;99.90;;;;;;5057823;28;19920;-62
2022/12/06 06:24:14;;;;;;;;;;;5.30;99.90;;;;;;5054708;28;19922;-63
2022/12/06 06:26:39;;;;;;;;;;;5.40;99.90;;;;;;5057294;28;19924;-63
2022/12/06 06:29:05;;;;;;;;;;;5.50;99.90;;;;;;5061668;28;19986;-63
2022/12/06 06:31:30;;;;;;;;;;;5.50;99.90;;;;;;5062435;28;19927;-63
2022/12/06 06:33:56;;;;;;;;;;;5.50;99.90;;;;;;5060296;28;20011;-62
2022/12/06 06:36:21;;;;;;;;;;;5.40;99.90;;;;;;5062005;28;19924;-63
2022/12/06 06:38:47;;;;;;;;;;;5.30;99.90;;;;;;5064217;28;19913;-63
2022/12/06 06:41:12;;;;;;;;;;;5.30;99.90;;;;;;5063676;28;20499;-63
2022/12/06 06:43:37;;;;;;;;;;;5.30;99.90;;;;;;5061266;28;19920;-63
2022/12/06 06:46:07;;;;;;;;;;;5.30;99.90;;;;;;5059364;28;19970;-62
2022/12/06 06:48:34;;;;;;;;;;;5.40;99.90;;;;;;5062874;28;19912;-62
2022/12/06 06:51:13;;;;;;;;;;;5.40;99.90;;;;;;5059983;28;20879;-62
2022/12/06 06:53:39;;;;;;;;;;;5.30;99.90;;;;;;5050960;28;19920;-62
2022/12/06 06:56:04;;;;;;;;;;;5.30;99.90;;;;;;5036567;28;19917;-62
2022/12/06 06:58:30;;;;;;;;;;;5.40;99.90;;;;;;5042605;28;19978;-61
2022/12/06 07:00:57;;;;;;;;;;;5.40;99.90;;;;;;5037365;28;19916;-63
2022/12/06 07:03:22;;;;;;;;;;;5.40;99.90;;;;;;5038770;28;20121;-62
2022/12/06 07:06:08;;;;;;;;;;;5.40;99.90;;;;;;5037035;28;20281;-62
2022/12/06 07:08:33;;;;;;;;;;;5.50;99.90;;;;;;5036443;28;19971;-63
2022/12/06 07:10:59;;;;;;;;;;;5.40;99.90;;;;;;5045192;28;20351;-62
2022/12/06 07:13:25;;;;;;;;;;;5.50;99.90;;;;;;5041097;28;19920;-62
2022/12/06 07:15:51;;;;;;;;;;;5.50;99.90;;;;;;5042898;28;19960;-62
2022/12/06 07:18:17;;;;;;;;;;;5.60;99.90;;;;;;5045037;28;19971;-62
2022/12/06 07:20:44;;;;;;;;;;;5.60;99.90;;;;;;5043694;28;19913;-62
2022/12/06 07:23:09;;;;;;;;;;;5.70;99.90;;;;;;5042634;28;19920;-62
2022/12/06 07:25:35;;;;;;;;;;;5.70;99.90;;;;;;5040951;28;19917;-62
2022/12/06 07:28:00;;;;;;;;;;;5.70;99.90;;;;;;5042688;28;19917;-63
2022/12/06 07:30:26;;;;;;;;;;;5.60;99.90;;;;;;5043329;28;19924;-62
2022/12/06 07:32:52;;;;;;;;;;;5.50;99.90;;;;;;5043093;28;19928;-62
2022/12/06 07:35:17;;;;;;;;;;;5.40;99.90;;;;;;5040106;28;19913;-62
2022/12/06 07:37:43;;;;;;;;;;;5.50;99.90;;;;;;5040335;28;19917;-62
2022/12/06 07:40:09;;;;;;;;;;;5.40;99.90;;;;;;5042137;28;19913;-62
2022/12/06 07:45:19;;;;;;;;;;;5.40;99.90;;;;;;5041643;28;19966;-62
2022/12/06 07:47:44;;;;;;;;;;;5.40;99.90;;;;;;5041860;28;19921;-62
2022/12/06 07:50:11;;;;;;;;;;;5.40;99.90;;;;;;5036961;28;19931;-62
2022/12/06 07:52:37;;;;;;;;;;;5.40;99.90;;;;;;5040319;28;19960;-63
2022/12/06 07:55:04;;;;;;;;;;;5.30;99.90;;;;;;5039297;28;19943;-64
2022/12/06 07:57:30;;;;;;;;;;;5.40;99.90;;;;;;5035664;28;19963;-63
2022/12/06 07:59:55;;;;;;;;;;;5.40;99.90;;;;;;5042327;28;19952;-63
2022/12/06 08:02:22;;;;;;;;;;;5.40;99.90;;;;;;5042110;28;19933;-63
2022/12/06 08:04:47;;;;;;;;;;;5.40;99.90;;;;;;5039503;28;20003;-63
2022/12/06 08:07:13;;;;;;;;;;;5.40;99.90;;;;;;5042163;28;20015;-63
2022/12/06 08:09:39;;;;;;;;;;;5.50;99.90;;;;;;5039358;28;19919;-63
2022/12/06 08:12:05;;;;;;;;;;;5.40;99.90;;;;;;5038115;28;20134;-62
2022/12/06 08:14:30;;;;;;;;;;;5.30;99.90;;;;;;5041703;28;19925;-62
2022/12/06 08:16:55;;;;;;;;;;;5.40;99.90;;;;;;5039089;28;20275;-63
2022/12/06 08:19:21;;;;;;;;;;;5.40;99.90;;;;;;5041285;28;19928;-62
2022/12/06 08:21:47;;;;;;;;;;;5.30;99.90;;;;;;5042796;28;19928;-63
2022/12/06 08:24:12;;;;;;;;;;;5.40;99.90;;;;;;5038936;28;19913;-63
2022/12/06 08:26:38;;;;;;;;;;;5.50;99.90;;;;;;5045300;28;20588;-63
2022/12/06 08:29:03;;;;;;;;;;;5.50;99.90;;;;;;5044106;28;19920;-63
2022/12/06 08:31:29;;;;;;;;;;;5.40;99.90;;;;;;5037369;28;19921;-63
2022/12/06 08:33:56;;;;;;;;;;;5.50;99.90;;;;;;5042131;28;19920;-62
2022/12/06 08:36:22;;;;;;;;;;;5.50;99.90;;;;;;5041649;28;20846;-63
2022/12/06 08:38:49;;;;;;;;;;;5.50;99.90;;;;;;5040378;28;20372;-62
2022/12/06 08:43:59;;;;;;;;;;;5.40;99.90;;;;;;5037988;28;19927;-63
2022/12/06 08:46:25;;;;;;;;;;;5.50;99.90;;;;;;5036670;28;19951;-63
2022/12/06 08:48:51;;;;;;;;;;;5.50;99.90;;;;;;5036537;28;20489;-63
2022/12/06 08:51:16;;;;;;;;;;;5.60;99.90;;;;;;5043923;28;19916;-63
2022/12/06 08:53:42;;;;;;;;;;;5.60;99.90;;;;;;5048249;28;20339;-63
2022/12/06 08:56:07;;;;;;;;;;;5.60;99.90;;;;;;5039145;28;19924;-63
2022/12/06 08:58:33;;;;;;;;;;;5.70;99.90;;;;;;5036976;28;19962;-64
2022/12/06 09:00:58;;;;;;;;;;;5.60;99.90;;;;;;5044971;28;19921;-64
2022/12/06 09:03:24;;;;;;;;;;;5.60;99.90;;;;;;5041730;28;20299;-64
2022/12/06 09:05:49;;;;;;;;;;;5.60;99.90;;;;;;5042566;28;19917;-64
2022/12/06 09:08:15;;;;;;;;;;;5.70;99.90;;;;;;5044087;28;20184;-64
2022/12/06 09:10:41;;;;;;;;;;;5.60;99.90;;;;;;5040033;28;20006;-64
2022/12/06 09:13:06;;;;;;;;;;;5.50;99.90;;;;;;5040229;28;19919;-64
2022/12/06 09:15:32;;;;;;;;;;;5.50;99.90;;;;;;5041312;28;19917;-63
2022/12/06 09:17:57;;;;;;;;;;;5.30;99.90;;;;;;5036932;28;19921;-62
2022/12/06 09:20:23;;;;;;;;;;;5.40;99.90;;;;;;5032685;28;20316;-67
2022/12/06 09:22:48;;;;;;;;;;;5.40;99.90;;;;;;5044717;28;19928;-64
2022/12/06 09:25:14;;;;;;;;;;;5.50;99.90;;;;;;5041177;28;19943;-64
2022/12/06 09:27:39;;;;;;;;;;;5.50;99.90;;;;;;5039633;28;19952;-64
2022/12/06 09:30:05;;;;;;;;;;;5.40;99.90;;;;;;5038838;28;19956;-64
2022/12/06 09:32:31;;;;;;;;;;;5.50;99.90;;;;;;5039765;28;19920;-64
2022/12/06 09:34:56;;;;;;;;;;;5.60;99.90;;;;;;5034463;28;19912;-63
2022/12/06 09:37:22;;;;;;;;;;;5.70;99.90;;;;;;5039683;28;19917;-64
2022/12/06 09:39:50;;;;;;;;;;;5.50;99.90;;;;;;5039297;28;20389;-64
2022/12/06 09:42:21;;;;;;;;;;;5.50;99.90;;;;;;5038372;28;20027;-64
2022/12/06 09:44:46;;;;;;;;;;;5.60;99.90;;;;;;5038906;28;19928;-63
2022/12/06 09:47:33;;;;;;;;;;;5.50;99.90;;;;;;5036238;28;19917;-63
2022/12/06 09:50:11;;;;;;;;;;;5.50;99.90;;;;;;5036901;28;19917;-65
2022/12/06 09:52:54;;;;;;;;;;;5.50;99.90;;;;;;5042299;28;20439;-64
2022/12/06 09:55:33;;;;;;;;;;;5.60;99.90;;;;;;5039472;28;19913;-64
2022/12/06 09:57:59;;;;;;;;;;;5.60;99.90;;;;;;5037274;28;20071;-64
2022/12/06 10:00:25;;;;;;;;;;;5.60;99.90;;;;;;5040633;28;19924;-66
2022/12/06 10:02:59;;;;;;;;;;;5.70;99.90;;;;;;5043856;28;19928;-64
2022/12/06 10:05:42;;;;;;;;;;;5.80;99.90;;;;;;5038203;28;19913;-64
2022/12/06 10:08:11;;;;;;;;;;;5.90;99.90;;;;;;5041320;28;20441;-64
2022/12/06 10:10:39;;;;;;;;;;;5.90;99.90;;;;;;5041413;28;20453;-64
2022/12/06 10:13:10;;;;;;;;;;;5.90;99.90;;;;;;5043338;28;19991;-64
2022/12/06 10:15:45;;;;;;;;;;;5.80;99.90;;;;;;5042336;28;20386;-64
2022/12/06 10:18:10;;;;;;;;;;;5.80;99.90;;;;;;5040926;28;19916;-64
2022/12/06 10:20:39;;;;;;;;;;;5.90;99.90;;;;;;5039719;28;19921;-68
2022/12/06 10:23:10;;;;;;;;;;;6.00;99.90;;;;;;5044110;28;19924;-64
2022/12/06 10:25:40;;;;;;;;;;;6.00;99.90;;;;;;5043021;28;20333;-64
2022/12/06 10:28:13;;;;;;;;;;;6.20;99.90;;;;;;5041397;28;20540;-64
2022/12/06 10:30:52;;;;;;;;;;;6.20;99.90;;;;;;5041281;28;19920;-64
2022/12/06 10:33:20;;;;;;;;;;;6.20;99.90;;;;;;5038316;28;19924;-64
2022/12/06 10:35:51;;;;;;;;;;;6.00;99.90;;;;;;5043794;28;20399;-64
2022/12/06 10:38:32;;;;;;;;;;;6.10;99.90;;;;;;5040676;28;19912;-64
2022/12/06 10:41:14;;;;;;;;;;;6.20;99.90;;;;;;5041438;28;19913;-64
2022/12/06 10:43:52;;;;;;;;;;;6.30;99.90;;;;;;5042532;28;19924;-64
2022/12/06 10:49:20;;;;;;;;;;;6.40;99.90;;;;;;5039005;28;19920;-63
2022/12/06 10:52:04;;;;;;;;;;;6.50;99.90;;;;;;5043969;28;20003;-64
2022/12/06 10:54:48;;;;;;;;;;;6.50;99.90;;;;;;5040253;28;20368;-64
2022/12/06 10:57:16;;;;;;;;;;;6.60;99.90;;;;;;5036321;28;19952;-64
2022/12/06 10:59:47;;;;;;;;;;;6.60;99.90;;;;;;5040307;28;19917;-65
2022/12/06 11:02:22;;;;;;;;;;;6.30;99.90;;;;;;5036683;28;20443;-63
2022/12/06 11:04:48;;;;;;;;;;;6.20;99.90;;;;;;5040906;28;19920;-64
2022/12/06 11:07:13;;;;;;;;;;;6.20;99.90;;;;;;5039987;28;20113;-64
2022/12/06 11:09:40;;;;;;;;;;;6.20;99.90;;;;;;5041534;28;19913;-64
2022/12/06 11:12:17;;;;;;;;;;;6.30;99.90;;;;;;5040633;28;20040;-64
2022/12/06 11:14:45;;;;;;;;;;;6.60;99.90;;;;;;5036936;28;19913;-63
2022/12/06 11:17:14;;;;;;;;;;;6.60;99.90;;;;;;5044148;28;20273;-65
2022/12/06 11:19:44;;;;;;;;;;;6.50;99.90;;;;;;5047213;28;20011;-65
2022/12/06 11:22:12;;;;;;;;;;;6.60;99.90;;;;;;5034689;28;19924;-64
2022/12/06 11:24:43;;;;;;;;;;;6.50;99.90;;;;;;5040038;28;19913;-64
2022/12/06 11:27:14;;;;;;;;;;;6.20;99.90;;;;;;5040329;28;19948;-65
2022/12/06 11:29:41;;;;;;;;;;;6.20;99.90;;;;;;5040279;28;19920;-64
2022/12/06 11:32:07;;;;;;;;;;;6.10;99.90;;;;;;5031122;28;19924;-63
2022/12/06 11:34:36;;;;;;;;;;;6.20;99.90;;;;;;5039246;28;19917;-63
2022/12/06 11:37:03;;;;;;;;;;;6.10;99.90;;;;;;5037478;28;19917;-63
2022/12/06 11:39:29;;;;;;;;;;;6.30;99.90;;;;;;5040171;28;20351;-64
2022/12/06 11:41:56;;;;;;;;;;;6.40;99.90;;;;;;5039249;28;20359;-64
2022/12/06 11:44:24;;;;;;;;;;;6.40;99.90;;;;;;5040561;28;20514;-63
2022/12/06 11:46:59;;;;;;;;;;;6.50;99.90;;;;;;5041343;28;20364;-63
2022/12/06 11:49:27;;;;;;;;;;;6.40;99.90;;;;;;5038082;28;20363;-64
2022/12/06 11:51:53;;;;;;;;;;;6.40;99.90;;;;;;5039903;28;20036;-63
2022/12/06 11:54:23;;;;;;;;;;;6.50;99.90;;;;;;5034119;28;19921;-63
2022/12/06 11:56:49;;;;;;;;;;;6.60;99.90;;;;;;5046300;28;19928;-62
2022/12/06 11:59:20;;;;;;;;;;;6.70;99.90;;;;;;5034794;28;20327;-63
2022/12/06 12:01:48;;;;;;;;;;;6.70;99.90;;;;;;5033759;28;19917;-64
2022/12/06 12:04:33;;;;;;;;;;;6.50;99.90;;;;;;5043206;28;20012;-63
2022/12/06 12:07:10;;;;;;;;;;;6.50;99.90;;;;;;5033915;28;19921;-65
2022/12/06 12:09:43;;;;;;;;;;;6.50;99.90;;;;;;5058890;28;20027;-63
2022/12/06 12:12:20;;;;;;;;;;;6.60;99.90;;;;;;5059785;28;19916;-63
2022/12/06 12:14:52;;;;;;;;;;;6.50;99.90;;;;;;5056792;28;19987;-64
2022/12/06 12:17:22;;;;;;;;;;;6.20;99.90;;;;;;5058126;28;19928;-64
2022/12/06 12:19:52;;;;;;;;;;;6.30;99.90;;;;;;5061087;28;19921;-64
2022/12/06 12:22:30;;;;;;;;;;;6.30;99.90;;;;;;5052786;28;20050;-64
2022/12/06 12:25:00;;;;;;;;;;;6.20;99.90;;;;;;5059775;28;20332;-64
2022/12/06 12:27:37;;;;;;;;;;;6.30;99.90;;;;;;5057853;28;19912;-64
2022/12/06 12:30:22;;;;;;;;;;;6.50;99.90;;;;;;5063592;28;20352;-64
2022/12/06 12:32:48;;;;;;;;;;;6.70;99.90;;;;;;5056910;28;20754;-64
2022/12/06 12:35:20;;;;;;;;;;;6.60;99.90;;;;;;5057282;28;19928;-64
2022/12/06 12:37:50;;;;;;;;;;;6.60;99.90;;;;;;5059956;28;19913;-64
2022/12/06 12:40:23;;;;;;;;;;;6.70;99.90;;;;;;5059141;28;19919;-64
2022/12/06 12:42:55;;;;;;;;;;;6.70;99.90;;;;;;5055394;28;19951;-64
2022/12/06 12:45:21;;;;;;;;;;;6.70;99.90;;;;;;5059329;28;19921;-63
2022/12/06 12:47:59;;;;;;;;;;;6.50;99.90;;;;;;5063162;28;19916;-64
2022/12/06 12:50:26;;;;;;;;;;;6.70;99.90;;;;;;5058494;28;19928;-64
2022/12/06 12:52:51;;;;;;;;;;;6.80;99.90;;;;;;5058084;28;20454;-63
2022/12/06 12:55:24;;;;;;;;;;;6.60;99.90;;;;;;5059345;28;19923;-64
2022/12/06 12:57:51;;;;;;;;;;;6.40;99.90;;;;;;5060517;28;19919;-64
2022/12/06 13:00:21;;;;;;;;;;;6.50;99.90;;;;;;5059560;28;19920;-64
2022/12/06 13:02:49;;;;;;;;;;;6.50;99.90;;;;;;5059513;28;20035;-64
2022/12/06 13:05:16;;;;;;;;;;;6.60;99.90;;;;;;5055213;28;20538;-64
2022/12/06 13:07:43;;;;;;;;;;;6.50;99.90;;;;;;5061662;28;19923;-64
2022/12/06 13:10:32;;;;;;;;;;;6.50;99.90;;;;;;5059517;28;19920;-64
2022/12/06 13:12:59;;;;;;;;;;;6.50;99.90;;;;;;5062169;28;20098;-64
2022/12/06 13:15:29;;;;;;;;;;;6.30;99.90;;;;;;5060343;28;20003;-63
2022/12/06 13:17:57;;;;;;;;;;;6.30;99.90;;;;;;5059891;28;20387;-64
2022/12/06 13:20:28;;;;;;;;;;;6.20;99.90;;;;;;5056230;28;20438;-64
2022/12/06 13:23:13;;;;;;;;;;;6.20;99.90;;;;;;5061778;28;20054;-64
2022/12/06 13:25:41;;;;;;;;;;;6.20;99.90;;;;;;5038250;28;19921;-64
2022/12/06 13:28:14;;;;;;;;;;;6.20;99.90;;;;;;5040472;28;20077;-64
2022/12/06 13:30:40;;;;;;;;;;;6.30;99.90;;;;;;5033589;28;19913;-64
2022/12/06 13:33:13;;;;;;;;;;;6.30;99.90;;;;;;5039441;28;19978;-64
2022/12/06 13:35:41;;;;;;;;;;;6.30;99.90;;;;;;5037635;28;20278;-64
2022/12/06 13:38:16;;;;;;;;;;;6.30;99.90;;;;;;5036966;28;20013;-65
2022/12/06 13:40:48;;;;;;;;;;;6.30;99.90;;;;;;5038941;28;20518;-65
2022/12/06 13:43:23;;;;;;;;;;;6.30;99.90;;;;;;5034839;28;19921;-63
2022/12/06 13:46:11;;;;;;;;;;;6.30;99.90;;;;;;5028788;28;19959;-62
2022/12/06 13:48:51;;;;;;;;;;;6.30;99.90;;;;;;5041856;28;20384;-64
2022/12/06 13:51:33;;;;;;;;;;;6.30;99.90;;;;;;5034960;28;19978;-64
2022/12/06 13:53:58;;;;;;;;;;;6.30;99.90;;;;;;5037741;28;19923;-64
2022/12/06 13:56:28;;;;;;;;;;;6.30;99.90;;;;;;5040241;28;19913;-64
2022/12/06 13:58:55;;;;;;;;;;;6.40;99.90;;;;;;5038629;28;20401;-64
2022/12/06 14:01:39;;;;;;;;;;;6.60;99.90;;;;;;5035335;28;20604;-64
2022/12/06 14:04:38;;;;;;;;;;;6.60;99.90;;;;;;5036778;28;19921;-64
2022/12/06 14:07:05;;;;;;;;;;;6.50;99.90;;;;;;5021819;28;19917;-64
2022/12/06 14:09:44;;;;;;;;;;;6.60;99.90;;;;;;5038582;28;19935;-64
2022/12/06 14:12:28;;;;;;;;;;;6.60;99.90;;;;;;5038896;28;20007;-64
2022/12/06 14:15:00;;;;;;;;;;;6.60;99.90;;;;;;5036090;28;19912;-63
2022/12/06 14:17:37;;;;;;;;;;;6.60;99.90;;;;;;5042231;28;19921;-64
2022/12/06 14:20:17;;;;;;;;;;;6.70;99.90;;;;;;5032441;28;19925;-64
2022/12/06 14:22:44;;;;;;;;;;;6.70;99.90;;;;;;5036636;28;19964;-64
2022/12/06 14:25:16;;;;;;;;;;;6.60;99.90;;;;;;5036779;28;19920;-63
2022/12/06 14:27:43;;;;;;;;;;;6.60;99.90;;;;;;5040401;28;20204;-64
2022/12/06 14:30:14;;;;;;;;;;;6.60;99.90;;;;;;5035274;28;19913;-64
2022/12/06 14:32:50;;;;;;;;;;;6.70;99.90;;;;;;5034660;28;19944;-64
2022/12/06 14:35:16;;;;;;;;;;;6.80;99.90;;;;;;5031606;28;20534;-64
2022/12/06 14:37:45;;;;;;;;;;;6.80;99.90;;;;;;5032309;28;20011;-64
2022/12/06 14:40:26;;;;;;;;;;;6.60;99.90;;;;;;5040051;28;20540;-63
2022/12/06 14:43:01;;;;;;;;;;;6.60;99.90;;;;;;5032187;28;20079;-64
2022/12/06 14:45:29;;;;;;;;;;;6.60;99.90;;;;;;5040022;28;19916;-66
2022/12/06 14:47:55;;;;;;;;;;;6.60;99.90;;;;;;5041598;28;20691;-64
2022/12/06 14:50:26;;;;;;;;;;;6.50;99.90;;;;;;5040719;28;19924;-64
2022/12/06 14:53:03;;;;;;;;;;;6.50;99.90;;;;;;5041239;28;20356;-64
2022/12/06 14:55:30;;;;;;;;;;;6.40;99.90;;;;;;5040121;28;20060;-64
2022/12/06 14:58:09;;;;;;;;;;;6.60;99.90;;;;;;5042889;28;20419;-63
2022/12/06 15:00:37;;;;;;;;;;;6.60;99.90;;;;;;5040401;28;20015;-64
2022/12/06 15:03:02;;;;;;;;;;;6.80;99.90;;;;;;5035961;28;20342;-64
2022/12/06 15:05:48;;;;;;;;;;;6.90;99.90;;;;;;5041920;28;20011;-64